Berlin Brandenburg International Airport


Codes: EDDB/BER
Name: Berlin Brandenburg International Airport
City: Berlin
Country: Germany
Elevation: 157 ft.
Wikipedia:

Photos at Berlin Brandenburg International Airport


   Photos courtesy of SpottingLog. You can add your own sightings and photos by signing up for a free trial today.



9V-OFN, 06-Dec-2023
© Thomas Baynes

OE-LBZ, 20-May-2023
© Tim Knauer

YL-LDI, 20-May-2023
© Tim Knauer

TC-LOC, 20-May-2023
© Tim Knauer

TC-GPA, 20-May-2023
© Tim Knauer

SP-LIP, 20-May-2023
© Tim Knauer

OO-SSJ, 20-May-2023
© Tim Knauer

EC-NIF, 20-May-2023
© Tim Knauer

N654UA, 20-May-2023
© Tim Knauer

LZ-GPA, 20-May-2023
© Tim Knauer

G-EUPM, 20-May-2023
© Tim Knauer

OE-INI, 20-May-2023
© Tim Knauer


Weather at Berlin Brandenburg International Airport


Time (UTC)DescriptionTempratureWindCloud coverageVisibilityPressureHumidity
18-Apr-2024 00:00Clear Sky5°C7 mph, NE0%10000m1011hPa84%
18-Apr-2024 03:00Clear Sky4°C7 mph, NE3%10000m1012hPa86%
18-Apr-2024 06:00Clear Sky4°C7 mph, NE7%10000m1014hPa76%
18-Apr-2024 09:00Few Clouds8°C7 mph, N12%10000m1016hPa48%
18-Apr-2024 12:00Light Rain10°C7 mph, N43%10000m1016hPa45%
18-Apr-2024 15:00Light Rain10°C9 mph, NW99%10000m1016hPa51%
18-Apr-2024 18:00Light Rain8°C4 mph, NW86%10000m1015hPa62%
18-Apr-2024 21:00Light Rain7°C7 mph, SW49%10000m1015hPa67%
19-Apr-2024 00:00Broken Clouds5°C7 mph, W71%10000m1014hPa85%
19-Apr-2024 03:00Overcast Clouds5°C7 mph, SW100%10000m1012hPa87%
19-Apr-2024 06:00Overcast Clouds6°C9 mph, SW100%10000m1010hPa79%
19-Apr-2024 09:00Light Rain6°C16 mph, SW100%10000m1006hPa77%
19-Apr-2024 12:00Moderate Rain4°C13 mph, SW100%91m1004hPa96%
19-Apr-2024 15:00Light Rain7°C11 mph, SW100%8964m1001hPa90%
19-Apr-2024 18:00Light Rain7°C7 mph, W100%10000m1002hPa85%
19-Apr-2024 21:00Light Rain6°C7 mph, W99%10000m1004hPa90%
20-Apr-2024 00:00Light Rain4°C7 mph, NW92%10000m1005hPa95%
20-Apr-2024 03:00Overcast Clouds5°C7 mph, N98%10000m1008hPa94%
20-Apr-2024 06:00Light Rain4°C13 mph, N99%644m1011hPa96%
20-Apr-2024 09:00Light Rain5°C13 mph, N100%10000m1015hPa84%
20-Apr-2024 12:00Light Rain7°C13 mph, N100%10000m1017hPa58%
20-Apr-2024 15:00Light Rain8°C13 mph, N100%10000m1019hPa43%
20-Apr-2024 18:00Light Rain5°C9 mph, NE92%10000m1021hPa58%
20-Apr-2024 21:00Few Clouds2°C4 mph, NE16%10000m1023hPa70%
21-Apr-2024 00:00Few Clouds1°C4 mph, NE15%10000m1024hPa73%
21-Apr-2024 03:00Broken Clouds-0°C4 mph, NE66%10000m1025hPa73%
21-Apr-2024 06:00Broken Clouds2°C7 mph, NE63%10000m1026hPa66%
21-Apr-2024 09:00Broken Clouds6°C11 mph, NE56%10000m1026hPa46%
21-Apr-2024 12:00Broken Clouds7°C11 mph, NE78%10000m1026hPa46%
21-Apr-2024 15:00Light Rain7°C13 mph, NE100%10000m1026hPa49%
21-Apr-2024 18:00Light Snow4°C11 mph, NE90%10000m1026hPa62%
21-Apr-2024 21:00Few Clouds1°C9 mph, NE15%10000m1027hPa75%
22-Apr-2024 00:00Scattered Clouds1°C7 mph, NE28%10000m1027hPa80%
22-Apr-2024 03:00Broken Clouds0°C7 mph, N82%10000m1026hPa87%
22-Apr-2024 06:00Light Rain2°C4 mph, N89%557m1026hPa98%
22-Apr-2024 09:00Light Rain5°C9 mph, NE100%10000m1026hPa81%
22-Apr-2024 12:00Light Rain8°C11 mph, NE100%10000m1025hPa65%
22-Apr-2024 15:00Overcast Clouds8°C11 mph, N100%10000m1024hPa62%
22-Apr-2024 18:00Overcast Clouds6°C11 mph, NE98%10000m1025hPa69%
22-Apr-2024 21:00Overcast Clouds3°C7 mph, NE90%10000m1025hPa79%